Terminal Aerodrome Forecast
Issued by NWS

Current Version | Previous Version | Text Only | Print | Product List | Glossary On
Versions: 1 2 3 4 5 6 7 8 9 10 11 12 13 14 15 16 17 18 19 20 21 22 23 24
212
FTUS45 KREV 291757
TAFCXP
TAF
KCXP 291757Z 2918/3018 26008KT P6SM SCT100 BKN180
     FM300200 24010G16KT P6SM BKN070 BKN140
     FM301000 20015G25KT P6SM VCSH BKN070 BKN150 WS020/30045KT
     FM301300 29022G32KT P6SM -SHRA BKN050 OVC100
     FM301700 32022G30KT P6SM VCSH BKN070 BKN120=

USA.gov is the U.S. government's official web portal to all federal, state and local government web resources and services.